sensor_id;sensor_type;location;lat;lon;timestamp;pressure;altitude;pressure_sealevel;temperature;humidity
69848;BME280;57143;55.940;37.496;2023-02-28T00:00:13;97018.59;;;-8.36;100.00
69848;BME280;57143;55.940;37.496;2023-02-28T00:02:42;96947.94;;;-8.70;100.00
69848;BME280;57143;55.940;37.496;2023-02-28T00:05:11;97028.53;;;-8.15;100.00
69848;BME280;57143;55.940;37.496;2023-02-28T00:07:38;97024.78;;;-8.21;100.00
69848;BME280;57143;55.940;37.496;2023-02-28T00:10:07;97021.38;;;-8.29;100.00
69848;BME280;57143;55.940;37.496;2023-02-28T00:12:35;97015.63;;;-8.25;100.00
69848;BME280;57143;55.940;37.496;2023-02-28T00:15:05;97007.44;;;-8.30;100.00
69848;BME280;57143;55.940;37.496;2023-02-28T00:17:34;97014.81;;;-8.25;100.00
69848;BME280;57143;55.940;37.496;2023-02-28T00:20:02;97015.97;;;-8.36;100.00
69848;BME280;57143;55.940;37.496;2023-02-28T00:22:38;96991.50;;;-8.37;100.00
69848;BME280;57143;55.940;37.496;2023-02-28T00:25:07;96976.91;;;-8.47;100.00
69848;BME280;57143;55.940;37.496;2023-02-28T00:27:35;96995.75;;;-8.27;100.00
69848;BME280;57143;55.940;37.496;2023-02-28T00:30:03;96998.06;;;-8.24;100.00
69848;BME280;57143;55.940;37.496;2023-02-28T00:32:32;96998.88;;;-8.24;100.00
69848;BME280;57143;55.940;37.496;2023-02-28T00:35:01;96989.00;;;-8.22;100.00
69848;BME280;57143;55.940;37.496;2023-02-28T00:37:30;96939.22;;;-8.54;100.00
69848;BME280;57143;55.940;37.496;2023-02-28T00:39:57;96977.56;;;-8.37;100.00
69848;BME280;57143;55.940;37.496;2023-02-28T00:42:24;96955.72;;;-8.29;100.00
69848;BME280;57143;55.940;37.496;2023-02-28T00:44:51;96956.41;;;-8.36;100.00
69848;BME280;57143;55.940;37.496;2023-02-28T00:47:19;96962.47;;;-8.43;100.00
69848;BME280;57143;55.940;37.496;2023-02-28T00:49:46;96947.88;;;-8.46;100.00
69848;BME280;57143;55.940;37.496;2023-02-28T00:52:15;96942.16;;;-8.49;100.00
69848;BME280;57143;55.940;37.496;2023-02-28T00:54:42;96955.28;;;-8.49;100.00
69848;BME280;57143;55.940;37.496;2023-02-28T00:57:09;96940.31;;;-8.49;100.00
69848;BME280;57143;55.940;37.496;2023-02-28T00:59:36;96920.19;;;-8.56;100.00
69848;BME280;57143;55.940;37.496;2023-02-28T01:02:03;96923.25;;;-8.45;100.00
69848;BME280;57143;55.940;37.496;2023-02-28T01:04:30;96897.66;;;-8.51;100.00
69848;BME280;57143;55.940;37.496;2023-02-28T01:06:57;96885.38;;;-8.42;100.00
69848;BME280;57143;55.940;37.496;2023-02-28T01:09:26;96882.56;;;-8.41;100.00
69848;BME280;57143;55.940;37.496;2023-02-28T01:11:53;96877.97;;;-8.47;100.00
69848;BME280;57143;55.940;37.496;2023-02-28T01:14:20;96860.28;;;-8.53;100.00
69848;BME280;57143;55.940;37.496;2023-02-28T01:16:47;96836.50;;;-8.59;100.00
69848;BME280;57143;55.940;37.496;2023-02-28T01:19:15;96845.31;;;-8.44;100.00
69848;BME280;57143;55.940;37.496;2023-02-28T01:21:42;96841.44;;;-8.56;100.00
69848;BME280;57143;55.940;37.496;2023-02-28T01:24:09;96848.44;;;-8.49;100.00
69848;BME280;57143;55.940;37.496;2023-02-28T01:26:38;96843.00;;;-8.47;100.00
69848;BME280;57143;55.940;37.496;2023-02-28T01:29:05;96835.84;;;-8.53;100.00
69848;BME280;57143;55.940;37.496;2023-02-28T01:31:32;96821.38;;;-8.49;100.00
69848;BME280;57143;55.940;37.496;2023-02-28T01:33:59;96804.50;;;-8.63;100.00
69848;BME280;57143;55.940;37.496;2023-02-28T01:36:26;96812.47;;;-8.40;100.00
69848;BME280;57143;55.940;37.496;2023-02-28T01:38:54;96808.22;;;-8.41;100.00
69848;BME280;57143;55.940;37.496;2023-02-28T01:41:22;96803.13;;;-8.43;100.00
69848;BME280;57143;55.940;37.496;2023-02-28T01:43:59;96810.22;;;-8.51;100.00
69848;BME280;57143;55.940;37.496;2023-02-28T01:46:30;96781.06;;;-8.64;100.00
69848;BME280;57143;55.940;37.496;2023-02-28T01:49:02;96782.41;;;-8.68;100.00
69848;BME280;57143;55.940;37.496;2023-02-28T01:51:34;96756.81;;;-8.66;100.00
69848;BME280;57143;55.940;37.496;2023-02-28T01:54:07;96788.72;;;-8.47;100.00
69848;BME280;57143;55.940;37.496;2023-02-28T01:56:43;96781.00;;;-8.48;100.00
69848;BME280;57143;55.940;37.496;2023-02-28T01:59:15;96777.72;;;-8.50;100.00
69848;BME280;57143;55.940;37.496;2023-02-28T02:01:48;96771.66;;;-8.51;100.00
69848;BME280;57143;55.940;37.496;2023-02-28T02:04:15;96764.94;;;-8.53;100.00
69848;BME280;57143;55.940;37.496;2023-02-28T02:06:44;96755.91;;;-8.51;100.00
69848;BME280;57143;55.940;37.496;2023-02-28T02:09:13;96751.66;;;-8.52;100.00
69848;BME280;57143;55.940;37.496;2023-02-28T02:11:40;96735.38;;;-8.47;100.00
69848;BME280;57143;55.940;37.496;2023-02-28T02:14:38;96724.38;;;-8.43;100.00
69848;BME280;57143;55.940;37.496;2023-02-28T02:17:16;96659.50;;;-8.87;100.00
69848;BME280;57143;55.940;37.496;2023-02-28T02:23:28;96713.03;;;-8.43;100.00
69848;BME280;57143;55.940;37.496;2023-02-28T02:26:08;96704.34;;;-8.44;100.00
69848;BME280;57143;55.940;37.496;2023-02-28T02:29:05;96695.19;;;-8.48;100.00
69848;BME280;57143;55.940;37.496;2023-02-28T02:31:56;96629.00;;;-8.88;100.00
69848;BME280;57143;55.940;37.496;2023-02-28T02:34:44;96674.09;;;-8.54;100.00
69848;BME280;57143;55.940;37.496;2023-02-28T02:37:24;96682.88;;;-8.47;100.00
69848;BME280;57143;55.940;37.496;2023-02-28T02:40:02;96675.69;;;-8.53;100.00
69848;BME280;57143;55.940;37.496;2023-02-28T02:42:36;96682.19;;;-8.41;100.00
69848;BME280;57143;55.940;37.496;2023-02-28T02:45:10;96652.91;;;-8.53;100.00
69848;BME280;57143;55.940;37.496;2023-02-28T02:47:40;96661.19;;;-8.41;100.00
69848;BME280;57143;55.940;37.496;2023-02-28T02:50:14;96658.31;;;-8.54;100.00
69848;BME280;57143;55.940;37.496;2023-02-28T02:52:46;96661.72;;;-8.46;100.00
69848;BME280;57143;55.940;37.496;2023-02-28T02:55:17;96645.72;;;-8.36;100.00
69848;BME280;57143;55.940;37.496;2023-02-28T02:57:47;96649.84;;;-8.42;100.00
69848;BME280;57143;55.940;37.496;2023-02-28T03:00:18;96644.13;;;-8.45;100.00
69848;BME280;57143;55.940;37.496;2023-02-28T03:02:49;96617.88;;;-8.45;100.00
69848;BME280;57143;55.940;37.496;2023-02-28T03:05:24;96597.53;;;-8.66;100.00
69848;BME280;57143;55.940;37.496;2023-02-28T03:07:52;96629.13;;;-8.37;100.00
69848;BME280;57143;55.940;37.496;2023-02-28T03:10:28;96605.69;;;-8.38;100.00
69848;BME280;57143;55.940;37.496;2023-02-28T03:13:06;96588.50;;;-8.41;100.00
69848;BME280;57143;55.940;37.496;2023-02-28T03:15:42;96574.00;;;-8.59;100.00
69848;BME280;57143;55.940;37.496;2023-02-28T03:18:18;96585.44;;;-8.52;100.00
69848;BME280;57143;55.940;37.496;2023-02-28T03:20:56;96591.72;;;-8.39;100.00
69848;BME280;57143;55.940;37.496;2023-02-28T03:23:35;96567.72;;;-8.50;100.00
69848;BME280;57143;55.940;37.496;2023-02-28T03:26:10;96570.72;;;-8.39;100.00
69848;BME280;57143;55.940;37.496;2023-02-28T03:28:41;96579.63;;;-8.40;100.00
69848;BME280;57143;55.940;37.496;2023-02-28T03:31:16;96578.28;;;-8.36;100.00
69848;BME280;57143;55.940;37.496;2023-02-28T03:33:48;96572.84;;;-8.34;100.00
69848;BME280;57143;55.940;37.496;2023-02-28T03:36:23;96550.63;;;-8.46;100.00
69848;BME280;57143;55.940;37.496;2023-02-28T03:38:55;96568.47;;;-8.42;100.00
69848;BME280;57143;55.940;37.496;2023-02-28T03:41:28;96586.16;;;-8.36;100.00
69848;BME280;57143;55.940;37.496;2023-02-28T03:44:00;96558.06;;;-8.20;100.00
69848;BME280;57143;55.940;37.496;2023-02-28T03:46:32;96537.50;;;-8.46;100.00
69848;BME280;57143;55.940;37.496;2023-02-28T03:49:05;96530.84;;;-8.34;100.00
69848;BME280;57143;55.940;37.496;2023-02-28T03:51:38;96546.69;;;-8.27;100.00
69848;BME280;57143;55.940;37.496;2023-02-28T03:54:09;96562.50;;;-8.21;100.00
69848;BME280;57143;55.940;37.496;2023-02-28T03:56:42;96564.94;;;-8.19;100.00
69848;BME280;57143;55.940;37.496;2023-02-28T03:59:14;96519.50;;;-8.49;100.00
69848;BME280;57143;55.940;37.496;2023-02-28T04:01:44;96574.66;;;-8.20;100.00
69848;BME280;57143;55.940;37.496;2023-02-28T04:04:12;96589.41;;;-8.19;100.00
69848;BME280;57143;55.940;37.496;2023-02-28T04:06:42;96574.75;;;-8.13;100.00
69848;BME280;57143;55.940;37.496;2023-02-28T04:09:11;96566.59;;;-8.33;100.00
69848;BME280;57143;55.940;37.496;2023-02-28T04:11:40;96585.97;;;-8.19;100.00
69848;BME280;57143;55.940;37.496;2023-02-28T04:14:09;96586.16;;;-8.21;100.00
69848;BME280;57143;55.940;37.496;2023-02-28T04:16:39;96565.16;;;-8.36;100.00
69848;BME280;57143;55.940;37.496;2023-02-28T04:19:07;96600.38;;;-8.15;100.00
69848;BME280;57143;55.940;37.496;2023-02-28T04:21:36;96592.50;;;-8.15;100.00
69848;BME280;57143;55.940;37.496;2023-02-28T04:24:06;96574.66;;;-8.35;100.00
69848;BME280;57143;55.940;37.496;2023-02-28T04:26:34;96597.28;;;-8.19;100.00
69848;BME280;57143;55.940;37.496;2023-02-28T04:29:03;96597.28;;;-8.19;100.00
69848;BME280;57143;55.940;37.496;2023-02-28T04:31:30;96596.47;;;-8.19;100.00
69848;BME280;57143;55.940;37.496;2023-02-28T04:33:58;96608.44;;;-8.17;100.00
69848;BME280;57143;55.940;37.496;2023-02-28T04:36:25;96612.00;;;-8.10;100.00
69848;BME280;57143;55.940;37.496;2023-02-28T04:38:53;96626.94;;;-8.10;100.00
69848;BME280;57143;55.940;37.496;2023-02-28T04:41:22;96619.34;;;-8.05;100.00
69848;BME280;57143;55.940;37.496;2023-02-28T04:43:50;96601.22;;;-8.15;100.00
69848;BME280;57143;55.940;37.496;2023-02-28T04:46:18;96583.81;;;-8.30;100.00
69848;BME280;57143;55.940;37.496;2023-02-28T04:48:46;96614.47;;;-7.94;100.00
69848;BME280;57143;55.940;37.496;2023-02-28T04:51:15;96610.22;;;-7.95;100.00
69848;BME280;57143;55.940;37.496;2023-02-28T04:53:43;96621.47;;;-7.86;100.00
69848;BME280;57143;55.940;37.496;2023-02-28T04:56:11;96618.38;;;-7.90;100.00
69848;BME280;57143;55.940;37.496;2023-02-28T04:58:40;96638.69;;;-7.84;100.00
69848;BME280;57143;55.940;37.496;2023-02-28T05:01:17;96652.81;;;-7.85;100.00
69848;BME280;57143;55.940;37.496;2023-02-28T05:03:44;96665.44;;;-7.80;100.00
69848;BME280;57143;55.940;37.496;2023-02-28T05:06:13;96677.16;;;-7.68;100.00
69848;BME280;57143;55.940;37.496;2023-02-28T05:08:40;96682.50;;;-7.62;100.00
69848;BME280;57143;55.940;37.496;2023-02-28T05:11:14;96700.38;;;-7.57;100.00
69848;BME280;57143;55.940;37.496;2023-02-28T05:13:43;96658.06;;;-7.85;100.00
69848;BME280;57143;55.940;37.496;2023-02-28T05:16:11;96716.25;;;-7.51;100.00
69848;BME280;57143;55.940;37.496;2023-02-28T05:18:38;96726.19;;;-7.61;100.00
69848;BME280;57143;55.940;37.496;2023-02-28T05:21:05;96745.81;;;-7.49;100.00
69848;BME280;57143;55.940;37.496;2023-02-28T05:23:32;96766.69;;;-7.47;100.00
69848;BME280;57143;55.940;37.496;2023-02-28T05:25:59;96796.22;;;-7.45;100.00
69848;BME280;57143;55.940;37.496;2023-02-28T05:28:27;96832.44;;;-7.47;100.00
69848;BME280;57143;55.940;37.496;2023-02-28T05:30:55;96837.03;;;-7.27;100.00
69848;BME280;57143;55.940;37.496;2023-02-28T05:33:22;96835.63;;;-7.00;100.00
69848;BME280;57143;55.940;37.496;2023-02-28T05:35:49;96809.50;;;-6.43;100.00
69848;BME280;57143;55.940;37.496;2023-02-28T05:38:16;96787.81;;;-5.53;100.00
69848;BME280;57143;55.940;37.496;2023-02-28T05:40:44;96808.53;;;-5.08;100.00
69848;BME280;57143;55.940;37.496;2023-02-28T05:43:11;96868.34;;;-5.36;100.00
69848;BME280;57143;55.940;37.496;2023-02-28T05:45:38;96915.88;;;-5.50;100.00
69848;BME280;57143;55.940;37.496;2023-02-28T05:48:07;96983.75;;;-5.59;100.00
69848;BME280;57143;55.940;37.496;2023-02-28T05:50:34;97015.59;;;-5.60;100.00
69848;BME280;57143;55.940;37.496;2023-02-28T05:53:01;97053.34;;;-5.74;100.00
69848;BME280;57143;55.940;37.496;2023-02-28T05:55:29;97079.72;;;-5.74;100.00
69848;BME280;57143;55.940;37.496;2023-02-28T05:57:56;97116.31;;;-5.57;100.00
69848;BME280;57143;55.940;37.496;2023-02-28T06:00:23;97121.59;;;-5.28;100.00
69848;BME280;57143;55.940;37.496;2023-02-28T06:02:50;97176.69;;;-4.96;100.00
69848;BME280;57143;55.940;37.496;2023-02-28T06:05:23;97190.03;;;-4.53;100.00
69848;BME280;57143;55.940;37.496;2023-02-28T06:07:50;97226.25;;;-4.18;100.00
69848;BME280;57143;55.940;37.496;2023-02-28T06:10:18;97289.81;;;-4.26;100.00
69848;BME280;57143;55.940;37.496;2023-02-28T06:12:45;97340.22;;;-4.28;100.00
69848;BME280;57143;55.940;37.496;2023-02-28T06:15:14;97394.91;;;-4.57;100.00
69848;BME280;57143;55.940;37.496;2023-02-28T06:17:41;97430.28;;;-4.44;100.00
69848;BME280;57143;55.940;37.496;2023-02-28T06:20:12;97456.09;;;-4.68;100.00
69848;BME280;57143;55.940;37.496;2023-02-28T06:22:40;97502.69;;;-4.98;100.00
69848;BME280;57143;55.940;37.496;2023-02-28T06:25:09;97511.63;;;-4.99;100.00
69848;BME280;57143;55.940;37.496;2023-02-28T06:27:37;97489.84;;;-5.01;100.00
69848;BME280;57143;55.940;37.496;2023-02-28T06:30:05;97490.69;;;-5.01;100.00
69848;BME280;57143;55.940;37.496;2023-02-28T06:32:33;97494.72;;;-5.21;100.00
69848;BME280;57143;55.940;37.496;2023-02-28T06:35:01;97444.06;;;-5.47;100.00
69848;BME280;57143;55.940;37.496;2023-02-28T06:37:30;97467.38;;;-5.28;100.00
69848;BME280;57143;55.940;37.496;2023-02-28T06:39:59;97436.31;;;-5.18;100.00
69848;BME280;57143;55.940;37.496;2023-02-28T06:42:26;97435.13;;;-5.15;100.00
69848;BME280;57143;55.940;37.496;2023-02-28T06:44:54;97427.94;;;-5.21;100.00
69848;BME280;57143;55.940;37.496;2023-02-28T06:47:21;97415.69;;;-5.14;100.00
69848;BME280;57143;55.940;37.496;2023-02-28T06:49:49;97386.50;;;-4.98;100.00
69848;BME280;57143;55.940;37.496;2023-02-28T06:52:16;97375.56;;;-4.95;100.00
69848;BME280;57143;55.940;37.496;2023-02-28T06:54:43;97359.78;;;-4.81;100.00
69848;BME280;57143;55.940;37.496;2023-02-28T06:57:12;97361.09;;;-5.22;100.00
69848;BME280;57143;55.940;37.496;2023-02-28T06:59:39;97352.69;;;-5.03;100.00
69848;BME280;57143;55.940;37.496;2023-02-28T07:02:09;97358.34;;;-5.06;100.00
69848;BME280;57143;55.940;37.496;2023-02-28T07:04:36;97321.22;;;-4.90;100.00
69848;BME280;57143;55.940;37.496;2023-02-28T07:07:06;97309.75;;;-4.68;100.00
69848;BME280;57143;55.940;37.496;2023-02-28T07:09:33;97297.00;;;-4.79;100.00
69848;BME280;57143;55.940;37.496;2023-02-28T07:12:00;97300.38;;;-4.55;100.00
69848;BME280;57143;55.940;37.496;2023-02-28T07:14:28;97283.25;;;-4.74;100.00
69848;BME280;57143;55.940;37.496;2023-02-28T07:16:56;97278.53;;;-4.49;100.00
69848;BME280;57143;55.940;37.496;2023-02-28T07:19:23;97258.00;;;-4.33;100.00
69848;BME280;57143;55.940;37.496;2023-02-28T07:21:50;97236.00;;;-4.19;100.00
69848;BME280;57143;55.940;37.496;2023-02-28T07:24:17;97262.28;;;-4.32;100.00
69848;BME280;57143;55.940;37.496;2023-02-28T07:26:44;97244.75;;;-4.18;100.00
69848;BME280;57143;55.940;37.496;2023-02-28T07:29:11;97248.63;;;-4.35;100.00
69848;BME280;57143;55.940;37.496;2023-02-28T07:31:40;97216.75;;;-4.13;100.00
69848;BME280;57143;55.940;37.496;2023-02-28T07:34:07;97208.13;;;-4.21;100.00
69848;BME280;57143;55.940;37.496;2023-02-28T07:36:34;97226.09;;;-3.96;100.00
69848;BME280;57143;55.940;37.496;2023-02-28T07:39:01;97198.66;;;-3.74;100.00
69848;BME280;57143;55.940;37.496;2023-02-28T07:41:30;97207.19;;;-3.93;100.00
69848;BME280;57143;55.940;37.496;2023-02-28T07:43:59;97205.13;;;-3.97;100.00
69848;BME280;57143;55.940;37.496;2023-02-28T07:46:27;97199.00;;;-3.98;100.00
69848;BME280;57143;55.940;37.496;2023-02-28T07:48:56;97165.13;;;-3.88;100.00
69848;BME280;57143;55.940;37.496;2023-02-28T07:51:25;97167.66;;;-3.80;100.00
69848;BME280;57143;55.940;37.496;2023-02-28T07:53:52;97154.75;;;-3.89;100.00
69848;BME280;57143;55.940;37.496;2023-02-28T07:56:19;97150.97;;;-3.80;100.00
69848;BME280;57143;55.940;37.496;2023-02-28T07:58:46;97134.59;;;-3.90;100.00
69848;BME280;57143;55.940;37.496;2023-02-28T08:01:13;97105.06;;;-3.94;100.00
69848;BME280;57143;55.940;37.496;2023-02-28T08:03:41;97086.41;;;-3.86;100.00
69848;BME280;57143;55.940;37.496;2023-02-28T08:06:19;97056.47;;;-3.59;100.00
69848;BME280;57143;55.940;37.496;2023-02-28T08:08:47;97066.00;;;-3.64;100.00
69848;BME280;57143;55.940;37.496;2023-02-28T08:11:15;97059.91;;;-3.65;100.00
69848;BME280;57143;55.940;37.496;2023-02-28T08:13:43;97029.88;;;-3.44;100.00
69848;BME280;57143;55.940;37.496;2023-02-28T08:16:11;97014.69;;;-3.29;100.00
69848;BME280;57143;55.940;37.496;2023-02-28T08:18:39;97051.78;;;-3.22;100.00
69848;BME280;57143;55.940;37.496;2023-02-28T08:21:08;97071.78;;;-3.20;100.00
69848;BME280;57143;55.940;37.496;2023-02-28T08:23:36;97073.91;;;-3.36;100.00
69848;BME280;57143;55.940;37.496;2023-02-28T08:26:03;97058.63;;;-3.41;100.00
69848;BME280;57143;55.940;37.496;2023-02-28T08:28:31;97080.94;;;-3.50;100.00
69848;BME280;57143;55.940;37.496;2023-02-28T08:30:59;97094.63;;;-3.46;100.00
69848;BME280;57143;55.940;37.496;2023-02-28T08:33:27;97060.66;;;-3.36;100.00
69848;BME280;57143;55.940;37.496;2023-02-28T08:35:55;97052.22;;;-3.53;100.00
69848;BME280;57143;55.940;37.496;2023-02-28T08:38:24;97036.16;;;-3.52;100.00
69848;BME280;57143;55.940;37.496;2023-02-28T08:40:57;97009.69;;;-3.86;100.00
69848;BME280;57143;55.940;37.496;2023-02-28T08:43:25;96984.31;;;-3.74;100.00
69848;BME280;57143;55.940;37.496;2023-02-28T08:45:52;96985.94;;;-3.73;100.00
69848;BME280;57143;55.940;37.496;2023-02-28T08:48:19;96977.88;;;-3.58;100.00
69848;BME280;57143;55.940;37.496;2023-02-28T08:50:55;96957.47;;;-3.64;100.00
69848;BME280;57143;55.940;37.496;2023-02-28T08:53:23;96948.16;;;-3.60;100.00
69848;BME280;57143;55.940;37.496;2023-02-28T08:55:58;96885.34;;;-3.86;100.00
69848;BME280;57143;55.940;37.496;2023-02-28T08:58:26;96906.44;;;-3.52;100.00
69848;BME280;57143;55.940;37.496;2023-02-28T09:00:53;96906.88;;;-3.48;100.00
69848;BME280;57143;55.940;37.496;2023-02-28T09:03:21;96905.88;;;-3.47;100.00
69848;BME280;57143;55.940;37.496;2023-02-28T09:05:53;96890.97;;;-3.48;100.00
69848;BME280;57143;55.940;37.496;2023-02-28T09:08:20;96893.00;;;-3.50;100.00
69848;BME280;57143;55.940;37.496;2023-02-28T09:10:49;96875.75;;;-3.33;100.00
69848;BME280;57143;55.940;37.496;2023-02-28T09:13:16;96879.66;;;-3.22;100.00
69848;BME280;57143;55.940;37.496;2023-02-28T09:15:44;96882.50;;;-3.17;100.00
69848;BME280;57143;55.940;37.496;2023-02-28T09:18:11;96880.09;;;-3.06;100.00
69848;BME280;57143;55.940;37.496;2023-02-28T09:20:39;96906.38;;;-3.11;100.00
69848;BME280;57143;55.940;37.496;2023-02-28T09:23:06;96895.78;;;-3.04;100.00
69848;BME280;57143;55.940;37.496;2023-02-28T09:25:34;96908.81;;;-3.09;100.00
69848;BME280;57143;55.940;37.496;2023-02-28T09:28:03;96860.47;;;-3.37;100.00
69848;BME280;57143;55.940;37.496;2023-02-28T09:30:30;96890.06;;;-3.14;100.00
69848;BME280;57143;55.940;37.496;2023-02-28T09:32:58;96879.88;;;-3.17;100.00
69848;BME280;57143;55.940;37.496;2023-02-28T09:35:25;96865.00;;;-3.12;100.00
69848;BME280;57143;55.940;37.496;2023-02-28T09:37:52;96862.56;;;-3.07;100.00
69848;BME280;57143;55.940;37.496;2023-02-28T09:40:20;96834.22;;;-3.39;100.00
69848;BME280;57143;55.940;37.496;2023-02-28T09:42:51;96841.38;;;-3.20;100.00
69848;BME280;57143;55.940;37.496;2023-02-28T09:45:23;96799.00;;;-3.26;100.00
69848;BME280;57143;55.940;37.496;2023-02-28T09:47:52;96819.38;;;-3.01;100.00
69848;BME280;57143;55.940;37.496;2023-02-28T09:50:29;96803.91;;;-2.97;100.00
69848;BME280;57143;55.940;37.496;2023-02-28T09:52:59;96792.47;;;-2.91;100.00
69848;BME280;57143;55.940;37.496;2023-02-28T09:55:30;96777.59;;;-2.92;100.00
69848;BME280;57143;55.940;37.496;2023-02-28T09:58:00;96787.38;;;-2.86;100.00
69848;BME280;57143;55.940;37.496;2023-02-28T10:00:32;96650.31;;;-3.49;100.00
69848;BME280;57143;55.940;37.496;2023-02-28T10:03:17;96749.09;;;-2.90;100.00
69848;BME280;57143;55.940;37.496;2023-02-28T10:05:52;96711.59;;;-3.07;100.00
69848;BME280;57143;55.940;37.496;2023-02-28T10:08:25;96720.50;;;-2.75;100.00
69848;BME280;57143;55.940;37.496;2023-02-28T10:10:57;96725.63;;;-2.80;100.00
69848;BME280;57143;55.940;37.496;2023-02-28T10:13:27;96679.81;;;-3.07;100.00
69848;BME280;57143;55.940;37.496;2023-02-28T10:16:03;96702.16;;;-2.70;100.00
69848;BME280;57143;55.940;37.496;2023-02-28T10:18:39;96707.44;;;-2.70;100.00
69848;BME280;57143;55.940;37.496;2023-02-28T10:21:17;96597.56;;;-3.38;100.00
69848;BME280;57143;55.940;37.496;2023-02-28T10:23:48;96675.69;;;-2.90;100.00
69848;BME280;57143;55.940;37.496;2023-02-28T10:26:17;96664.84;;;-2.69;100.00
69848;BME280;57143;55.940;37.496;2023-02-28T10:28:45;96687.06;;;-2.70;100.00
69848;BME280;57143;55.940;37.496;2023-02-28T10:31:17;96676.63;;;-2.58;100.00
69848;BME280;57143;55.940;37.496;2023-02-28T10:33:45;96665.38;;;-2.54;100.00
69848;BME280;57143;55.940;37.496;2023-02-28T10:36:14;96668.66;;;-2.52;100.00
69848;BME280;57143;55.940;37.496;2023-02-28T10:38:42;96666.97;;;-2.40;100.00
69848;BME280;57143;55.940;37.496;2023-02-28T10:41:11;96664.22;;;-2.64;100.00
69848;BME280;57143;55.940;37.496;2023-02-28T10:43:40;96648.91;;;-2.56;100.00
69848;BME280;57143;55.940;37.496;2023-02-28T10:46:15;96653.19;;;-2.61;100.00
69848;BME280;57143;55.940;37.496;2023-02-28T10:49:01;96647.28;;;-2.63;100.00
69848;BME280;57143;55.940;37.496;2023-02-28T10:51:35;96626.91;;;-2.63;100.00
69848;BME280;57143;55.940;37.496;2023-02-28T10:54:04;96635.47;;;-2.61;100.00
69848;BME280;57143;55.940;37.496;2023-02-28T10:56:32;96636.69;;;-2.63;100.00
69848;BME280;57143;55.940;37.496;2023-02-28T10:59:00;96616.47;;;-2.58;100.00
69848;BME280;57143;55.940;37.496;2023-02-28T11:01:38;96600.56;;;-2.58;100.00
69848;BME280;57143;55.940;37.496;2023-02-28T11:04:17;96610.75;;;-2.55;100.00
69848;BME280;57143;55.940;37.496;2023-02-28T11:06:47;96596.72;;;-2.62;100.00
69848;BME280;57143;55.940;37.496;2023-02-28T11:09:25;96589.97;;;-2.58;100.00
69848;BME280;57143;55.940;37.496;2023-02-28T11:11:55;96588.50;;;-2.54;100.00
69848;BME280;57143;55.940;37.496;2023-02-28T11:14:24;96556.25;;;-2.44;100.00
69848;BME280;57143;55.940;37.496;2023-02-28T11:16:55;96501.84;;;-2.53;100.00
69848;BME280;57143;55.940;37.496;2023-02-28T11:19:26;96525.75;;;-2.28;100.00
69848;BME280;57143;55.940;37.496;2023-02-28T11:21:57;96521.69;;;-2.31;100.00
69848;BME280;57143;55.940;37.496;2023-02-28T11:24:28;96501.66;;;-2.27;100.00
69848;BME280;57143;55.940;37.496;2023-02-28T11:26:56;96488.34;;;-2.20;100.00
69848;BME280;57143;55.940;37.496;2023-02-28T11:29:25;96452.19;;;-2.15;100.00
69848;BME280;57143;55.940;37.496;2023-02-28T11:32:12;96457.34;;;-2.20;100.00
69848;BME280;57143;55.940;37.496;2023-02-28T11:34:40;96407.41;;;-2.23;100.00
69848;BME280;57143;55.940;37.496;2023-02-28T11:37:12;96374.06;;;-2.37;100.00
69848;BME280;57143;55.940;37.496;2023-02-28T11:39:40;96397.16;;;-2.19;100.00
69848;BME280;57143;55.940;37.496;2023-02-28T11:42:16;96314.47;;;-2.53;100.00
69848;BME280;57143;55.940;37.496;2023-02-28T11:45:00;96339.44;;;-2.24;100.00
69848;BME280;57143;55.940;37.496;2023-02-28T11:47:37;96318.38;;;-2.37;100.00
69848;BME280;57143;55.940;37.496;2023-02-28T11:50:20;96301.22;;;-2.16;100.00
69848;BME280;57143;55.940;37.496;2023-02-28T11:52:52;96275.94;;;-2.19;100.00
69848;BME280;57143;55.940;37.496;2023-02-28T11:55:24;96259.03;;;-2.18;100.00
69848;BME280;57143;55.940;37.496;2023-02-28T11:58:10;96233.72;;;-2.02;100.00
69848;BME280;57143;55.940;37.496;2023-02-28T12:01:01;96205.34;;;-2.02;100.00
69848;BME280;57143;55.940;37.496;2023-02-28T12:03:43;96197.44;;;-2.20;100.00
69848;BME280;57143;55.940;37.496;2023-02-28T12:06:18;96203.84;;;-2.27;100.00
69848;BME280;57143;55.940;37.496;2023-02-28T12:08:54;96132.25;;;-2.57;100.00
69848;BME280;57143;55.940;37.496;2023-02-28T12:11:35;96158.69;;;-2.21;100.00
69848;BME280;57143;55.940;37.496;2023-02-28T12:14:27;96114.19;;;-2.49;100.00
69848;BME280;57143;55.940;37.496;2023-02-28T12:17:03;96118.66;;;-2.49;100.00
69848;BME280;57143;55.940;37.496;2023-02-28T12:19:43;96103.25;;;-2.41;100.00
69848;BME280;57143;55.940;37.496;2023-02-28T12:22:26;96076.38;;;-2.44;100.00
69848;BME280;57143;55.940;37.496;2023-02-28T12:27:54;96016.94;;;-2.37;100.00
69848;BME280;57143;55.940;37.496;2023-02-28T12:30:23;95995.38;;;-2.40;100.00
69848;BME280;57143;55.940;37.496;2023-02-28T12:32:55;95963.56;;;-2.28;100.00
69848;BME280;57143;55.940;37.496;2023-02-28T12:35:27;95936.13;;;-2.34;100.00
69848;BME280;57143;55.940;37.496;2023-02-28T12:38:03;95882.75;;;-2.49;100.00
69848;BME280;57143;55.940;37.496;2023-02-28T12:40:40;95874.78;;;-2.26;100.00
69848;BME280;57143;55.940;37.496;2023-02-28T12:43:09;95863.03;;;-2.18;100.00
69848;BME280;57143;55.940;37.496;2023-02-28T12:45:42;95825.69;;;-2.28;100.00
69848;BME280;57143;55.940;37.496;2023-02-28T12:48:15;95808.50;;;-2.26;100.00
69848;BME280;57143;55.940;37.496;2023-02-28T12:50:47;95825.00;;;-2.12;100.00
69848;BME280;57143;55.940;37.496;2023-02-28T12:53:20;95810.69;;;-2.23;100.00
69848;BME280;57143;55.940;37.496;2023-02-28T12:56:00;95810.47;;;-2.21;100.00
69848;BME280;57143;55.940;37.496;2023-02-28T12:58:33;95786.50;;;-2.38;100.00
69848;BME280;57143;55.940;37.496;2023-02-28T13:01:23;95774.94;;;-2.20;100.00
69848;BME280;57143;55.940;37.496;2023-02-28T13:07:03;95750.94;;;-2.14;100.00